Time;durP1;ratioP1;P1;durP2;ratioP2;P2;SDS_P1;SDS_P2;PMS_P1;PMS_P2;Temp;Humidity;BMP_temperature;BMP_pressure;BME280_temperature;BME280_humidity;BME280_pressure;Samples;Min_cycle;Max_cycle;Signal;HPM_P1;HPM_P2
2021/05/25 00:01:24;;;;;;;0.52;0.40;;;9.70;74.00;;;;;;4992394;28;20124;-71
2021/05/25 00:03:50;;;;;;;1.05;0.40;;;9.70;74.10;;;;;;5005783;28;20062;-73
2021/05/25 00:06:15;;;;;;;1.50;0.60;;;9.70;74.20;;;;;;5001751;28;20033;-71
2021/05/25 00:08:41;;;;;;;0.60;0.40;;;9.70;74.30;;;;;;5010340;28;20030;-71
2021/05/25 00:11:07;;;;;;;1.10;0.38;;;9.70;74.40;;;;;;5006996;28;20453;-72
2021/05/25 00:13:33;;;;;;;0.40;0.40;;;9.70;74.40;;;;;;5000708;28;20034;-72
2021/05/25 00:15:59;;;;;;;0.50;0.40;;;9.70;74.40;;;;;;4997316;28;20056;-72
2021/05/25 00:18:25;;;;;;;0.50;0.40;;;9.70;74.50;;;;;;5008673;28;20052;-71
2021/05/25 00:20:51;;;;;;;0.60;0.40;;;9.70;74.60;;;;;;4988958;28;20061;-71
2021/05/25 00:23:17;;;;;;;0.75;0.50;;;9.60;74.50;;;;;;5011760;28;20065;-70
2021/05/25 00:25:42;;;;;;;0.35;0.35;;;9.60;74.60;;;;;;4992744;28;20026;-71
2021/05/25 00:28:08;;;;;;;1.45;0.55;;;9.60;74.70;;;;;;4998929;28;20037;-72
2021/05/25 00:30:34;;;;;;;1.20;0.50;;;9.60;74.60;;;;;;4996126;28;20018;-72
2021/05/25 00:32:59;;;;;;;0.45;0.40;;;9.60;74.70;;;;;;5011426;28;20030;-72
2021/05/25 00:35:26;;;;;;;2.17;0.45;;;9.60;74.60;;;;;;4992275;28;20037;-72
2021/05/25 00:37:52;;;;;;;1.30;0.60;;;9.60;74.60;;;;;;5010906;28;20034;-71
2021/05/25 00:40:18;;;;;;;0.65;0.40;;;9.50;74.60;;;;;;4990062;28;20044;-71
2021/05/25 00:42:45;;;;;;;1.63;0.40;;;9.60;74.70;;;;;;5010333;28;20116;-72
2021/05/25 00:45:12;;;;;;;2.70;0.60;;;9.50;74.60;;;;;;4990643;28;20025;-72
2021/05/25 00:47:38;;;;;;;0.75;0.40;;;9.50;74.50;;;;;;4992143;28;20070;-72
2021/05/25 00:50:11;;;;;;;0.88;0.60;;;9.50;74.50;;;;;;4984924;28;20026;-71
2021/05/25 00:52:43;;;;;;;0.90;0.40;;;9.50;74.50;;;;;;5010011;28;20017;-71
2021/05/25 00:55:20;;;;;;;1.00;0.53;;;9.50;74.60;;;;;;4986129;28;20080;-72
2021/05/25 00:57:47;;;;;;;1.00;0.50;;;9.40;74.50;;;;;;5003863;28;20290;-70
2021/05/25 01:00:15;;;;;;;0.82;0.50;;;9.40;74.50;;;;;;4999634;28;20551;-72
2021/05/25 01:02:41;;;;;;;1.45;0.50;;;9.40;74.50;;;;;;4985334;28;20030;-76
2021/05/25 01:05:10;;;;;;;0.47;0.40;;;9.40;74.50;;;;;;4993207;28;20085;-73
2021/05/25 01:07:35;;;;;;;0.73;0.43;;;9.40;74.60;;;;;;5009603;28;20034;-72
2021/05/25 01:10:01;;;;;;;2.05;0.68;;;9.40;74.80;;;;;;5010578;28;20028;-70
2021/05/25 01:12:31;;;;;;;1.23;0.50;;;9.40;74.80;;;;;;4990339;28;20122;-70
2021/05/25 01:15:02;;;;;;;1.30;0.47;;;9.40;74.90;;;;;;5009813;28;20022;-71
2021/05/25 01:17:28;;;;;;;2.47;0.50;;;9.40;75.00;;;;;;4972504;28;20025;-71
2021/05/25 01:19:54;;;;;;;1.15;0.52;;;9.40;75.00;;;;;;5000513;28;20022;-70
2021/05/25 01:22:19;;;;;;;1.63;0.50;;;9.40;74.90;;;;;;4997408;28;20096;-70
2021/05/25 01:24:45;;;;;;;2.25;0.60;;;9.40;74.90;;;;;;4978150;28;20058;-72
2021/05/25 01:27:11;;;;;;;1.02;0.50;;;9.40;74.90;;;;;;4993980;28;20033;-71
2021/05/25 01:29:39;;;;;;;5.43;0.80;;;9.30;74.90;;;;;;4983079;28;20035;-70
2021/05/25 01:32:06;;;;;;;1.77;0.52;;;9.30;74.80;;;;;;5007295;28;20395;-71
2021/05/25 01:34:31;;;;;;;1.73;0.52;;;9.20;74.70;;;;;;5003543;28;20382;-70
2021/05/25 01:36:57;;;;;;;1.10;0.50;;;9.10;74.60;;;;;;4991291;28;20034;-70
2021/05/25 01:39:22;;;;;;;0.82;0.50;;;9.10;74.70;;;;;;5006361;28;20034;-70
2021/05/25 01:41:55;;;;;;;3.05;0.65;;;9.00;74.80;;;;;;5006223;28;20606;-71
2021/05/25 01:44:21;;;;;;;1.25;0.40;;;9.10;75.10;;;;;;4986916;28;20030;-71
2021/05/25 01:46:48;;;;;;;2.17;0.45;;;9.00;74.90;;;;;;5003572;28;20099;-70
2021/05/25 01:49:15;;;;;;;1.00;0.52;;;9.10;74.90;;;;;;5003050;28;20474;-70
2021/05/25 01:51:48;;;;;;;1.65;0.47;;;9.00;75.10;;;;;;5009081;28;20088;-70
2021/05/25 01:54:15;;;;;;;1.98;0.50;;;9.00;75.10;;;;;;4980460;28;20430;-71
2021/05/25 01:59:09;;;;;;;1.90;0.50;;;9.00;74.80;;;;;;5043849;28;20052;-71
2021/05/25 02:01:35;;;;;;;1.67;0.50;;;9.00;74.80;;;;;;5023896;28;20053;-71
2021/05/25 02:04:02;;;;;;;2.30;0.60;;;9.00;74.90;;;;;;5010461;28;20056;-71
2021/05/25 02:06:27;;;;;;;0.90;0.50;;;9.00;74.90;;;;;;5013223;28;20418;-71
2021/05/25 02:08:54;;;;;;;1.30;0.50;;;9.00;75.00;;;;;;5026640;28;20045;-71
2021/05/25 02:11:20;;;;;;;1.35;0.50;;;9.00;75.10;;;;;;5019580;28;20066;-71
2021/05/25 02:13:46;;;;;;;1.08;0.55;;;9.00;75.10;;;;;;5004565;28;20053;-71
2021/05/25 02:16:14;;;;;;;1.67;0.70;;;9.00;75.10;;;;;;5019967;28;20018;-71
2021/05/25 02:18:44;;;;;;;1.67;0.50;;;9.00;75.00;;;;;;5008068;28;20038;-71
2021/05/25 02:21:15;;;;;;;2.25;0.68;;;9.00;74.90;;;;;;5012784;28;20054;-71
2021/05/25 02:23:41;;;;;;;1.05;0.60;;;8.90;75.00;;;;;;5014271;28;20485;-71
2021/05/25 02:26:07;;;;;;;1.88;0.50;;;8.90;75.00;;;;;;5019105;28;20064;-71
2021/05/25 02:28:33;;;;;;;2.45;0.60;;;8.90;75.10;;;;;;5022854;28;20396;-71
2021/05/25 02:30:59;;;;;;;1.40;0.63;;;8.90;75.00;;;;;;5020494;28;20076;-71
2021/05/25 02:33:26;;;;;;;1.75;0.45;;;8.90;74.90;;;;;;5015281;28;20544;-71
2021/05/25 02:35:56;;;;;;;1.65;0.60;;;8.90;74.80;;;;;;5004852;28;20480;-71
2021/05/25 02:38:22;;;;;;;0.60;0.50;;;8.80;74.90;;;;;;5025301;28;20517;-71
2021/05/25 02:40:49;;;;;;;1.75;0.50;;;8.80;75.00;;;;;;5024129;28;20117;-71
2021/05/25 02:43:17;;;;;;;3.17;0.55;;;8.80;75.00;;;;;;5019947;28;20465;-71
2021/05/25 02:45:43;;;;;;;0.65;0.47;;;8.80;75.10;;;;;;4996737;28;20033;-69
2021/05/25 02:48:09;;;;;;;0.50;0.45;;;8.80;75.10;;;;;;5015367;28;20338;-70
2021/05/25 02:50:35;;;;;;;2.17;0.60;;;8.80;75.10;;;;;;5012377;28;20057;-70
2021/05/25 02:53:00;;;;;;;2.35;0.68;;;8.80;75.40;;;;;;5018834;28;20022;-70
2021/05/25 02:55:28;;;;;;;0.45;0.45;;;8.80;75.40;;;;;;5013855;28;20489;-70
2021/05/25 02:57:55;;;;;;;2.38;0.63;;;8.80;75.60;;;;;;5036391;28;20075;-70
2021/05/25 03:00:33;;;;;;;3.08;0.60;;;8.90;75.60;;;;;;5017167;28;20441;-69
2021/05/25 03:02:59;;;;;;;2.42;0.70;;;8.90;75.70;;;;;;5015660;28;20081;-69
2021/05/25 03:05:25;;;;;;;0.75;0.52;;;8.90;75.70;;;;;;5030818;28;20055;-70
2021/05/25 03:07:56;;;;;;;1.98;0.68;;;8.90;75.50;;;;;;5017333;28;20105;-72
2021/05/25 03:10:25;;;;;;;2.53;0.73;;;8.90;75.60;;;;;;5013683;28;20029;-70
2021/05/25 03:12:52;;;;;;;2.15;0.70;;;8.90;75.50;;;;;;5014683;28;20022;-70
2021/05/25 03:15:21;;;;;;;0.75;0.73;;;8.80;75.50;;;;;;5026433;28;20103;-69
2021/05/25 03:17:47;;;;;;;1.15;0.60;;;8.70;75.70;;;;;;5005645;28;20394;-69
2021/05/25 03:20:14;;;;;;;2.05;0.73;;;8.70;75.60;;;;;;5026773;28;20029;-70
2021/05/25 03:22:40;;;;;;;1.27;0.55;;;8.70;75.60;;;;;;5030182;28;20029;-69
2021/05/25 03:25:07;;;;;;;2.90;0.70;;;8.70;75.60;;;;;;5028269;28;20100;-69
2021/05/25 03:27:34;;;;;;;0.88;0.40;;;8.70;75.70;;;;;;5026289;28;20291;-69
2021/05/25 03:29:59;;;;;;;2.92;0.68;;;8.60;75.70;;;;;;5024674;28;20483;-69
2021/05/25 03:32:25;;;;;;;2.42;0.60;;;8.60;75.70;;;;;;5022485;28;20141;-69
2021/05/25 03:34:50;;;;;;;1.95;0.68;;;8.60;75.70;;;;;;5003719;28;20680;-69
2021/05/25 03:37:16;;;;;;;3.70;0.63;;;8.60;75.80;;;;;;5017503;28;20026;-69
2021/05/25 03:39:42;;;;;;;7.05;0.75;;;8.60;75.90;;;;;;5010916;28;20022;-70
2021/05/25 03:42:07;;;;;;;1.55;0.85;;;8.60;76.00;;;;;;5019292;28;20029;-70
2021/05/25 03:44:33;;;;;;;5.20;0.70;;;8.50;75.90;;;;;;5010206;28;20393;-70
2021/05/25 03:46:59;;;;;;;2.20;0.52;;;8.60;76.00;;;;;;5021492;28;20025;-70
2021/05/25 03:49:24;;;;;;;3.28;0.57;;;8.50;75.90;;;;;;5026580;28;20038;-70
2021/05/25 03:51:50;;;;;;;1.20;0.57;;;8.50;76.50;;;;;;5025103;28;20024;-69
2021/05/25 03:54:22;;;;;;;2.97;0.60;;;8.50;76.00;;;;;;5027774;28;20109;-69
2021/05/25 03:56:52;;;;;;;1.67;0.80;;;8.50;76.00;;;;;;5004639;28;20056;-70
2021/05/25 03:59:18;;;;;;;3.20;0.75;;;8.50;76.00;;;;;;5007461;28;20398;-69
2021/05/25 04:01:43;;;;;;;1.60;0.60;;;8.50;76.00;;;;;;5026356;28;20052;-70
2021/05/25 04:04:10;;;;;;;2.22;0.70;;;8.50;76.00;;;;;;5012121;28;20030;-70
2021/05/25 04:06:36;;;;;;;1.85;0.50;;;8.50;76.00;;;;;;5018482;28;20029;-69
2021/05/25 04:09:02;;;;;;;2.00;0.70;;;8.40;75.90;;;;;;5029419;28;20386;-69
2021/05/25 04:11:28;;;;;;;2.92;0.70;;;8.40;76.00;;;;;;5020132;28;20029;-70
2021/05/25 04:13:54;;;;;;;3.08;0.75;;;8.40;76.00;;;;;;5027635;28;20030;-69
2021/05/25 04:16:19;;;;;;;1.27;0.50;;;8.40;76.00;;;;;;5017600;28;20493;-69
2021/05/25 04:18:45;;;;;;;3.60;0.65;;;8.40;76.10;;;;;;5016388;28;20037;-69
2021/05/25 04:21:11;;;;;;;2.88;0.82;;;8.40;76.00;;;;;;5020355;28;20029;-69
2021/05/25 04:23:38;;;;;;;3.75;0.63;;;8.40;76.00;;;;;;5011432;28;20068;-69
2021/05/25 04:26:04;;;;;;;2.58;0.60;;;8.40;76.00;;;;;;5021707;28;20506;-69
2021/05/25 04:28:29;;;;;;;2.53;0.70;;;8.40;75.90;;;;;;5021834;28;20045;-70
2021/05/25 04:30:55;;;;;;;2.15;0.50;;;8.50;76.00;;;;;;5017972;28;20026;-70
2021/05/25 04:33:21;;;;;;;1.67;0.85;;;8.50;76.10;;;;;;5030208;28;20046;-70
2021/05/25 04:35:47;;;;;;;3.75;0.60;;;8.50;75.90;;;;;;5029378;28;20026;-70
2021/05/25 04:38:13;;;;;;;2.08;0.50;;;8.50;75.90;;;;;;5028181;28;20105;-70
2021/05/25 04:40:42;;;;;;;1.15;0.40;;;8.50;75.90;;;;;;5018799;28;20125;-70
2021/05/25 04:43:09;;;;;;;4.25;0.57;;;8.50;75.80;;;;;;5023197;28;20026;-69
2021/05/25 04:45:36;;;;;;;1.95;0.68;;;8.60;75.70;;;;;;5027142;28;20399;-70
2021/05/25 04:48:02;;;;;;;0.90;0.60;;;8.60;75.60;;;;;;5026716;28;20382;-70
2021/05/25 04:50:28;;;;;;;2.13;0.60;;;8.60;75.60;;;;;;5011045;28;20036;-69
2021/05/25 04:52:54;;;;;;;1.58;0.50;;;8.60;75.50;;;;;;4995650;28;20062;-70
2021/05/25 04:55:22;;;;;;;1.38;0.55;;;8.70;75.30;;;;;;5025266;28;20058;-70
2021/05/25 04:57:48;;;;;;;0.57;0.40;;;8.70;75.30;;;;;;5024721;28;20038;-70
2021/05/25 05:00:16;;;;;;;3.85;0.70;;;8.70;75.10;;;;;;5020779;28;20032;-70
2021/05/25 05:02:42;;;;;;;2.10;0.60;;;8.70;75.10;;;;;;5016694;28;20477;-70
2021/05/25 05:05:08;;;;;;;0.50;0.50;;;8.80;74.90;;;;;;5011297;28;20037;-70
2021/05/25 05:07:34;;;;;;;3.50;0.50;;;8.80;74.80;;;;;;5019551;28;20037;-70
2021/05/25 05:10:00;;;;;;;1.95;0.55;;;8.80;74.70;;;;;;5016249;28;20406;-71
2021/05/25 05:12:26;;;;;;;0.85;0.50;;;8.80;74.50;;;;;;5018193;28;20465;-71
2021/05/25 05:14:53;;;;;;;3.28;0.70;;;8.80;74.70;;;;;;5012596;28;20030;-70
2021/05/25 05:17:20;;;;;;;1.98;0.68;;;8.80;74.60;;;;;;5012477;28;20406;-71
2021/05/25 05:19:45;;;;;;;0.77;0.60;;;8.80;74.50;;;;;;5010806;28;20462;-70
2021/05/25 05:22:11;;;;;;;2.88;0.60;;;8.80;74.50;;;;;;5014803;28;20116;-70
2021/05/25 05:24:37;;;;;;;1.52;0.80;;;8.90;74.50;;;;;;5005636;28;20053;-69
2021/05/25 05:27:03;;;;;;;2.70;0.50;;;9.00;74.50;;;;;;5021149;28;20394;-70
2021/05/25 05:29:28;;;;;;;3.13;0.63;;;9.10;74.40;;;;;;5023598;28;20046;-71
2021/05/25 05:31:54;;;;;;;1.27;0.52;;;9.10;74.20;;;;;;5015028;28;20138;-70
2021/05/25 05:34:19;;;;;;;2.88;0.82;;;9.10;74.10;;;;;;5004304;28;20021;-70
2021/05/25 05:36:45;;;;;;;3.75;0.60;;;9.10;74.00;;;;;;5016464;28;20109;-70
2021/05/25 05:39:10;;;;;;;0.80;0.40;;;9.10;73.80;;;;;;5020521;28;20030;-70
2021/05/25 05:41:36;;;;;;;1.67;0.40;;;9.10;73.70;;;;;;5016328;28;20531;-70
2021/05/25 05:44:02;;;;;;;1.25;0.60;;;9.20;73.70;;;;;;5023430;28;20048;-70
2021/05/25 05:46:28;;;;;;;1.42;0.50;;;9.20;73.50;;;;;;5024492;28;20053;-70
2021/05/25 05:48:54;;;;;;;0.43;0.43;;;9.20;73.30;;;;;;4991978;28;20063;-70
2021/05/25 05:51:20;;;;;;;1.10;0.52;;;9.30;73.30;;;;;;5021354;28;20458;-70
2021/05/25 05:53:46;;;;;;;2.38;0.50;;;9.30;73.30;;;;;;5026745;28;20105;-70
2021/05/25 05:56:12;;;;;;;1.00;0.40;;;9.30;73.30;;;;;;5018002;28;20473;-70
2021/05/25 05:58:38;;;;;;;2.08;0.50;;;9.40;73.20;;;;;;5023512;28;20092;-69
2021/05/25 06:01:03;;;;;;;0.40;0.40;;;9.40;73.10;;;;;;5014854;28;20036;-70
2021/05/25 06:03:29;;;;;;;1.75;0.40;;;9.40;73.00;;;;;;5016484;28;20121;-70
2021/05/25 06:05:54;;;;;;;1.48;0.35;;;9.50;72.90;;;;;;5014899;28;20034;-70
2021/05/25 06:08:21;;;;;;;1.25;0.52;;;9.50;72.90;;;;;;5041376;28;20029;-69
2021/05/25 06:10:51;;;;;;;0.50;0.50;;;9.50;72.80;;;;;;5032268;28;20048;-69
2021/05/25 06:13:19;;;;;;;1.67;0.40;;;9.50;72.60;;;;;;4999489;28;20041;-70
2021/05/25 06:15:44;;;;;;;0.43;0.35;;;9.50;72.50;;;;;;5026151;28;20357;-71
2021/05/25 06:18:10;;;;;;;1.00;0.50;;;9.50;72.50;;;;;;5023136;28;20179;-70
2021/05/25 06:20:35;;;;;;;1.02;0.40;;;9.50;72.50;;;;;;5004728;28;20067;-69
2021/05/25 06:23:01;;;;;;;0.73;0.40;;;9.50;72.10;;;;;;5039908;28;20112;-70
2021/05/25 06:25:27;;;;;;;0.60;0.40;;;9.60;72.00;;;;;;5045662;28;20033;-70
2021/05/25 06:27:53;;;;;;;1.98;0.50;;;9.60;72.00;;;;;;5049009;28;20017;-70
2021/05/25 06:30:20;;;;;;;1.33;0.45;;;9.60;72.00;;;;;;5014860;28;20032;-70
2021/05/25 06:32:45;;;;;;;0.20;0.20;;;9.70;72.10;;;;;;5012660;28;20030;-70
2021/05/25 06:35:12;;;;;;;1.30;0.40;;;9.70;72.00;;;;;;4995788;28;20029;-70
2021/05/25 06:37:37;;;;;;;2.05;0.40;;;9.70;71.80;;;;;;5016490;28;20037;-70
2021/05/25 06:40:04;;;;;;;1.10;0.50;;;9.80;71.70;;;;;;5024019;28;20457;-71
2021/05/25 06:42:30;;;;;;;0.52;0.52;;;9.80;71.60;;;;;;5031107;28;20101;-71
2021/05/25 06:44:55;;;;;;;0.77;0.50;;;9.80;71.40;;;;;;5030504;28;20079;-70
2021/05/25 06:47:21;;;;;;;0.38;0.38;;;9.90;71.00;;;;;;5019019;28;20485;-74
2021/05/25 06:49:47;;;;;;;1.55;0.43;;;9.90;70.90;;;;;;5019823;28;20109;-70
2021/05/25 06:52:12;;;;;;;0.50;0.38;;;10.00;70.70;;;;;;5013935;28;20041;-70
2021/05/25 06:54:38;;;;;;;2.90;0.50;;;10.10;70.40;;;;;;4995801;28;20564;-70
2021/05/25 06:57:04;;;;;;;0.40;0.40;;;10.10;70.30;;;;;;5027230;28;20025;-69
2021/05/25 06:59:29;;;;;;;2.17;0.60;;;10.10;70.20;;;;;;5034291;28;20025;-70
2021/05/25 07:01:55;;;;;;;1.27;0.50;;;10.10;70.10;;;;;;5029714;28;20482;-70
2021/05/25 07:04:21;;;;;;;1.08;1.00;;;10.10;70.10;;;;;;5028061;28;20080;-71
2021/05/25 07:06:47;;;;;;;0.93;0.40;;;10.20;70.20;;;;;;5030324;28;20021;-70
2021/05/25 07:09:13;;;;;;;1.60;0.43;;;10.30;69.90;;;;;;5024311;28;20026;-70
2021/05/25 07:11:38;;;;;;;0.43;0.38;;;10.40;69.90;;;;;;5025336;28;20064;-70
2021/05/25 07:14:04;;;;;;;0.57;0.40;;;10.40;69.80;;;;;;5011046;28;20054;-70
2021/05/25 07:16:30;;;;;;;0.68;0.60;;;10.50;69.30;;;;;;5022040;28;20469;-69
2021/05/25 07:18:57;;;;;;;0.80;0.50;;;10.60;68.80;;;;;;4995003;28;20395;-71
2021/05/25 07:21:22;;;;;;;2.38;0.57;;;10.70;68.70;;;;;;5025695;28;20038;-69
2021/05/25 07:23:48;;;;;;;1.00;0.43;;;10.80;68.20;;;;;;5020594;28;20030;-69
2021/05/25 07:26:14;;;;;;;0.95;0.40;;;10.90;68.30;;;;;;5026074;28;20041;-71
2021/05/25 07:28:39;;;;;;;1.08;0.50;;;11.00;68.10;;;;;;5035236;28;20115;-71
2021/05/25 07:31:05;;;;;;;0.40;0.30;;;11.30;67.80;;;;;;5033137;28;20033;-70
2021/05/25 07:33:30;;;;;;;0.98;0.40;;;11.30;68.10;;;;;;5031437;28;20056;-70
2021/05/25 07:35:56;;;;;;;1.33;0.40;;;11.40;67.20;;;;;;5028949;28;20028;-70
2021/05/25 07:38:22;;;;;;;3.53;0.50;;;11.40;67.00;;;;;;5031022;28;20124;-70
2021/05/25 07:40:47;;;;;;;1.88;0.50;;;11.30;66.80;;;;;;5028694;28;20045;-70
2021/05/25 07:43:13;;;;;;;1.98;0.55;;;11.20;66.90;;;;;;5031195;28;20025;-70
2021/05/25 07:45:39;;;;;;;0.98;0.30;;;11.20;66.90;;;;;;5023440;28;20042;-70
2021/05/25 07:48:05;;;;;;;0.75;0.40;;;11.20;67.10;;;;;;5020678;28;20037;-70
2021/05/25 07:50:31;;;;;;;2.97;0.32;;;11.10;67.10;;;;;;5031542;28;20024;-70
2021/05/25 07:52:57;;;;;;;1.25;0.45;;;11.00;67.30;;;;;;5028507;28;20392;-71
2021/05/25 07:55:26;;;;;;;0.80;0.40;;;11.00;67.10;;;;;;5031169;23;20029;-73
2021/05/25 07:57:52;;;;;;;0.95;0.40;;;10.90;66.90;;;;;;4983275;28;20031;-73
2021/05/25 08:00:19;;;;;;;0.85;0.50;;;10.80;66.50;;;;;;4988106;28;20029;-73
2021/05/25 08:02:45;;;;;;;0.75;0.25;;;10.70;66.70;;;;;;4982685;28;20031;-73
2021/05/25 08:05:13;;;;;;;1.17;0.45;;;10.50;66.80;;;;;;4984355;28;20076;-75
2021/05/25 08:07:40;;;;;;;1.73;0.60;;;10.50;67.30;;;;;;4973063;28;20029;-73
2021/05/25 08:10:06;;;;;;;0.80;0.45;;;10.40;67.70;;;;;;4990792;28;20117;-73
2021/05/25 08:12:32;;;;;;;0.90;0.50;;;10.40;68.00;;;;;;4990997;28;20100;-73
2021/05/25 08:15:00;;;;;;;1.02;0.40;;;10.40;68.10;;;;;;4989090;28;20062;-72
2021/05/25 08:20:19;;;;;;;1.23;0.40;;;10.30;68.60;;;;;;4990976;28;20117;-73
2021/05/25 08:22:48;;;;;;;0.38;0.30;;;10.40;68.90;;;;;;4979508;28;20014;-73
2021/05/25 08:25:16;;;;;;;0.43;0.38;;;10.50;68.60;;;;;;4964991;28;20054;-73
2021/05/25 08:27:42;;;;;;;1.33;0.47;;;10.70;68.20;;;;;;4990230;28;20045;-72
2021/05/25 08:30:09;;;;;;;0.68;0.30;;;10.70;67.90;;;;;;4988367;28;20026;-71
2021/05/25 08:32:36;;;;;;;0.57;0.45;;;10.80;67.90;;;;;;4986402;28;20110;-73
2021/05/25 08:35:02;;;;;;;1.38;0.60;;;10.90;67.30;;;;;;4989178;28;20107;-72
2021/05/25 08:37:28;;;;;;;2.35;0.60;;;10.90;67.20;;;;;;4990551;28;20026;-71
2021/05/25 08:39:54;;;;;;;0.85;0.40;;;11.80;66.20;;;;;;4990682;28;20031;-73
2021/05/25 08:42:19;;;;;;;0.90;0.40;;;12.50;64.60;;;;;;4990520;28;20041;-73
2021/05/25 08:44:45;;;;;;;1.38;0.40;;;12.90;63.80;;;;;;4989903;28;20022;-73
2021/05/25 08:47:12;;;;;;;1.27;0.40;;;13.30;62.50;;;;;;4988086;28;20364;-73
2021/05/25 08:49:40;;;;;;;1.55;0.60;;;13.40;62.40;;;;;;4989259;28;20034;-73
2021/05/25 08:52:06;;;;;;;1.05;0.40;;;14.00;61.70;;;;;;4972218;28;20499;-73
2021/05/25 08:54:32;;;;;;;0.45;0.30;;;14.30;60.50;;;;;;4984362;28;20022;-73
2021/05/25 08:56:58;;;;;;;1.63;0.43;;;14.20;60.70;;;;;;4994043;28;20113;-73
2021/05/25 08:59:24;;;;;;;1.50;0.40;;;14.40;60.60;;;;;;4990318;28;20130;-73
2021/05/25 09:01:50;;;;;;;1.63;0.47;;;15.40;59.30;;;;;;4998046;28;20049;-73
2021/05/25 09:04:17;;;;;;;0.45;0.22;;;15.50;58.50;;;;;;4985479;28;20387;-74
2021/05/25 09:06:44;;;;;;;3.33;0.40;;;15.10;58.90;;;;;;4953553;28;20035;-73
2021/05/25 09:09:15;;;;;;;1.10;0.47;;;14.60;59.60;;;;;;4990739;28;20022;-74
2021/05/25 09:12:05;;;;;;;1.65;0.70;;;14.50;59.70;;;;;;5009865;28;20033;-73
2021/05/25 09:14:34;;;;;;;2.92;0.30;;;14.80;58.70;;;;;;4990001;28;20117;-73
2021/05/25 09:17:21;;;;;;;0.60;0.50;;;15.00;58.50;;;;;;4994295;28;20081;-74
2021/05/25 09:19:49;;;;;;;0.85;0.40;;;14.70;58.60;;;;;;4978769;28;20022;-73
2021/05/25 09:22:44;;;;;;;1.55;0.50;;;14.60;58.50;;;;;;4996528;28;20038;-73
2021/05/25 09:25:21;;;;;;;2.75;0.55;;;14.20;59.10;;;;;;4975065;28;20077;-73
2021/05/25 09:28:05;;;;;;;1.20;0.45;;;13.90;59.10;;;;;;4996324;28;20505;-74
2021/05/25 09:30:32;;;;;;;1.83;0.43;;;13.60;59.60;;;;;;4996704;28;20018;-74
2021/05/25 09:32:59;;;;;;;1.40;0.40;;;13.30;59.30;;;;;;4994820;28;20053;-73
2021/05/25 09:35:31;;;;;;;1.77;0.20;;;12.90;59.80;;;;;;4970105;28;20083;-73
2021/05/25 09:37:58;;;;;;;1.30;0.40;;;12.70;60.00;;;;;;4997841;28;20109;-73
2021/05/25 09:40:29;;;;;;;0.80;0.40;;;12.50;60.40;;;;;;4988260;28;20517;-74
2021/05/25 09:43:13;;;;;;;0.40;0.40;;;12.40;60.60;;;;;;4998179;28;20053;-74
2021/05/25 09:46:00;;;;;;;2.15;0.40;;;12.20;60.50;;;;;;4966481;28;20026;-73
2021/05/25 09:48:53;;;;;;;0.50;0.38;;;12.20;60.80;;;;;;4993082;28;20534;-71
2021/05/25 09:51:27;;;;;;;4.13;0.50;;;12.10;60.90;;;;;;4981279;28;20121;-73
2021/05/25 09:53:54;;;;;;;2.25;0.40;;;12.00;60.70;;;;;;4998144;28;20157;-74
2021/05/25 09:56:30;;;;;;;1.42;0.30;;;11.90;61.10;;;;;;4984643;28;20035;-73
2021/05/25 09:58:59;;;;;;;3.15;0.40;;;11.80;61.20;;;;;;4996111;28;20030;-73
2021/05/25 10:01:37;;;;;;;3.03;0.82;;;11.70;61.30;;;;;;4996609;28;20394;-73
2021/05/25 10:04:10;;;;;;;4.15;0.40;;;11.70;61.30;;;;;;4995297;28;20041;-72
2021/05/25 10:06:37;;;;;;;3.05;0.75;;;11.60;61.40;;;;;;4996670;28;20057;-73
2021/05/25 10:09:03;;;;;;;2.47;0.47;;;11.60;61.40;;;;;;4994031;28;20026;-73
2021/05/25 10:11:29;;;;;;;1.35;0.57;;;11.50;61.50;;;;;;4991738;28;20036;-73
2021/05/25 10:13:56;;;;;;;0.98;0.38;;;11.50;61.80;;;;;;4995288;28;20486;-72
2021/05/25 10:16:25;;;;;;;0.88;0.38;;;11.50;62.00;;;;;;4996013;28;20034;-71
2021/05/25 10:19:03;;;;;;;0.55;0.32;;;11.70;62.10;;;;;;4995368;28;20026;-73
2021/05/25 10:21:29;;;;;;;1.00;0.43;;;12.00;62.20;;;;;;4996694;28;20384;-73
2021/05/25 10:23:57;;;;;;;3.20;0.50;;;12.50;62.00;;;;;;4994735;28;20026;-73
2021/05/25 10:26:24;;;;;;;1.60;0.50;;;12.90;62.40;;;;;;4996197;28;20080;-73
2021/05/25 10:28:52;;;;;;;1.45;0.47;;;13.40;62.10;;;;;;4993911;28;20030;-73
2021/05/25 10:31:41;;;;;;;2.08;0.43;;;13.70;61.60;;;;;;4992930;28;20022;-73
2021/05/25 10:34:14;;;;;;;6.85;0.50;;;13.80;60.40;;;;;;4991898;28;20026;-73
2021/05/25 10:36:47;;;;;;;3.38;0.43;;;13.80;60.50;;;;;;4992661;28;20386;-73
2021/05/25 10:39:27;;;;;;;1.35;0.40;;;13.70;59.90;;;;;;4986418;28;20066;-73
2021/05/25 10:42:24;;;;;;;2.53;0.68;;;13.40;60.00;;;;;;4989766;28;20038;-73
2021/05/25 10:45:00;;;;;;;2.03;0.30;;;13.00;59.20;;;;;;4993136;28;20033;-73
2021/05/25 10:47:35;;;;;;;0.50;0.30;;;12.60;59.90;;;;;;4980131;28;20105;-73
2021/05/25 10:51:03;;;;;;;1.95;0.50;;;12.00;60.20;;;;;;4978988;28;20023;-73
2021/05/25 10:53:03;;;;;;;1.65;0.40;;;11.60;61.30;;;;;;4969432;28;20437;-73
2021/05/25 10:55:38;;;;;;;1.15;0.45;;;11.30;62.00;;;;;;4993780;28;20068;-73
2021/05/25 10:58:35;;;;;;;2.25;0.45;;;11.30;62.90;;;;;;5010326;28;20033;-74
2021/05/25 11:01:08;;;;;;;2.63;0.75;;;11.40;63.40;;;;;;5011489;28;20021;-73
2021/05/25 11:03:34;;;;;;;3.10;0.40;;;11.60;63.60;;;;;;5012295;28;20034;-73
2021/05/25 11:06:01;;;;;;;3.42;0.70;;;11.80;63.40;;;;;;5011640;28;20030;-73
2021/05/25 11:08:33;;;;;;;1.67;0.60;;;12.00;62.70;;;;;;5006731;28;20130;-73
2021/05/25 11:11:07;;;;;;;2.40;0.50;;;12.10;62.20;;;;;;5003267;28;20388;-73
2021/05/25 11:13:45;;;;;;;0.73;0.38;;;12.20;61.80;;;;;;4993046;28;20053;-73
2021/05/25 11:18:53;;;;;;;3.70;0.40;;;12.40;61.30;;;;;;5012330;28;20110;-73
2021/05/25 11:24:27;;;;;;;3.15;0.50;;;12.40;61.10;;;;;;5010769;28;20056;-73
2021/05/25 11:27:04;;;;;;;3.53;0.50;;;12.30;60.50;;;;;;4993994;28;20057;-73
2021/05/25 11:29:30;;;;;;;3.63;0.43;;;12.30;60.40;;;;;;5011757;28;20025;-73
2021/05/25 11:32:00;;;;;;;0.88;0.40;;;12.30;60.40;;;;;;5011089;28;20030;-72
2021/05/25 11:34:28;;;;;;;1.45;0.40;;;12.20;59.90;;;;;;5010817;28;20030;-73
2021/05/25 11:36:58;;;;;;;0.73;0.50;;;12.30;60.10;;;;;;5011449;28;20038;-71
2021/05/25 11:39:25;;;;;;;0.98;0.40;;;12.40;60.30;;;;;;5007934;28;20076;-71
2021/05/25 11:41:51;;;;;;;0.45;0.40;;;12.50;60.20;;;;;;5004948;28;20053;-73
2021/05/25 11:44:19;;;;;;;1.25;0.50;;;12.60;59.70;;;;;;4991084;28;20031;-73
2021/05/25 11:46:47;;;;;;;1.83;0.25;;;12.80;59.10;;;;;;5006355;28;20036;-72
2021/05/25 11:49:15;;;;;;;4.30;0.40;;;12.90;59.10;;;;;;5011258;28;20034;-73
2021/05/25 11:51:42;;;;;;;2.80;0.47;;;13.20;59.20;;;;;;5011071;28;20461;-73
2021/05/25 11:54:19;;;;;;;3.13;0.40;;;13.30;58.90;;;;;;4999852;28;20793;-73
2021/05/25 11:56:51;;;;;;;1.25;0.50;;;13.40;58.00;;;;;;4993118;28;20089;-73
2021/05/25 11:59:23;;;;;;;1.50;0.57;;;13.40;57.70;;;;;;4991553;28;20065;-73
2021/05/25 12:01:51;;;;;;;4.88;0.50;;;13.60;58.00;;;;;;4987955;28;20085;-73
2021/05/25 12:04:18;;;;;;;1.50;0.55;;;13.80;58.10;;;;;;4990651;28;20058;-73
2021/05/25 12:06:52;;;;;;;1.88;0.35;;;14.00;57.50;;;;;;4991086;28;20483;-73
2021/05/25 12:09:19;;;;;;;2.55;0.50;;;14.20;56.90;;;;;;4979773;28;20054;-74
2021/05/25 12:11:46;;;;;;;0.75;0.40;;;14.50;56.70;;;;;;4991181;28;20030;-73
2021/05/25 12:14:14;;;;;;;1.95;0.52;;;14.70;56.90;;;;;;4990847;28;20529;-73
2021/05/25 12:16:42;;;;;;;2.70;0.60;;;14.80;56.20;;;;;;5006767;28;20530;-71
2021/05/25 12:19:08;;;;;;;3.28;0.70;;;14.90;55.60;;;;;;4992225;28;20023;-73
2021/05/25 12:21:35;;;;;;;4.43;0.55;;;14.90;55.30;;;;;;4992067;28;20030;-73
2021/05/25 12:24:01;;;;;;;3.95;0.50;;;15.00;55.20;;;;;;4989125;28;20121;-73
2021/05/25 12:26:27;;;;;;;1.92;0.40;;;14.90;54.80;;;;;;4991952;28;20026;-73
2021/05/25 12:28:54;;;;;;;0.88;0.40;;;14.80;55.10;;;;;;4991876;28;20049;-73
2021/05/25 12:31:21;;;;;;;0.98;0.50;;;14.90;55.00;;;;;;4991388;28;20471;-73
2021/05/25 12:33:48;;;;;;;1.10;0.43;;;14.80;55.00;;;;;;4991607;28;20030;-73
2021/05/25 12:36:23;;;;;;;4.55;0.52;;;14.80;55.10;;;;;;4991403;28;20026;-73
2021/05/25 12:38:57;;;;;;;1.15;0.50;;;14.70;54.70;;;;;;4983342;28;20034;-72
2021/05/25 12:41:23;;;;;;;0.88;0.30;;;14.60;54.60;;;;;;4988210;28;20030;-72
2021/05/25 12:43:49;;;;;;;5.47;0.60;;;14.50;54.60;;;;;;4991355;28;20041;-73
2021/05/25 12:46:14;;;;;;;2.00;0.60;;;14.30;54.40;;;;;;4987115;28;20027;-73
2021/05/25 12:48:41;;;;;;;1.85;0.47;;;14.10;54.40;;;;;;4986810;28;20037;-73
2021/05/25 12:51:09;;;;;;;4.40;0.50;;;13.90;54.60;;;;;;4990241;28;20113;-72
2021/05/25 12:53:53;;;;;;;1.88;0.52;;;13.80;54.70;;;;;;4989325;28;20026;-72
2021/05/25 12:56:21;;;;;;;2.13;0.60;;;13.70;54.70;;;;;;4983648;28;20065;-72
2021/05/25 12:58:51;;;;;;;3.38;0.80;;;13.60;55.30;;;;;;4990924;28;20062;-72
2021/05/25 13:01:33;;;;;;;2.00;0.70;;;13.30;56.00;;;;;;4990887;28;20106;-72
2021/05/25 13:04:02;;;;;;;1.33;0.65;;;13.00;56.50;;;;;;4990205;28;20113;-72
2021/05/25 13:09:13;;;;;;;1.77;0.50;;;12.80;58.50;;;;;;4983072;28;20054;-72
2021/05/25 13:11:55;;;;;;;2.95;0.50;;;12.80;58.70;;;;;;4987343;28;20022;-72